sensor_id;sensor_type;location;lat;lon;timestamp;P1;durP1;ratioP1;P2;durP2;ratioP2
19151;SDS011;9708;53.114;9.388;2023-03-01T03:42:34;2.00;;;1.93;;
19151;SDS011;9708;53.114;9.388;2023-03-01T03:45:01;3.63;;;2.27;;
19151;SDS011;9708;53.114;9.388;2023-03-01T03:47:28;1.80;;;1.70;;
19151;SDS011;9708;53.114;9.388;2023-03-01T03:49:55;2.77;;;2.57;;
19151;SDS011;9708;53.114;9.388;2023-03-01T03:52:22;2.20;;;1.97;;
19151;SDS011;9708;53.114;9.388;2023-03-01T03:54:49;2.53;;;2.10;;
19151;SDS011;9708;53.114;9.388;2023-03-01T03:57:15;2.90;;;2.70;;
19151;SDS011;9708;53.114;9.388;2023-03-01T03:59:44;5.00;;;1.80;;
19151;SDS011;9708;53.114;9.388;2023-03-01T04:02:10;3.93;;;2.27;;
19151;SDS011;9708;53.114;9.388;2023-03-01T04:04:37;2.77;;;2.30;;
19151;SDS011;9708;53.114;9.388;2023-03-01T04:07:04;2.07;;;1.87;;
19151;SDS011;9708;53.114;9.388;2023-03-01T04:09:31;1.97;;;1.83;;
19151;SDS011;9708;53.114;9.388;2023-03-01T04:11:58;2.00;;;1.90;;
19151;SDS011;9708;53.114;9.388;2023-03-01T04:14:24;1.67;;;1.57;;
19151;SDS011;9708;53.114;9.388;2023-03-01T04:16:53;5.63;;;2.67;;
19151;SDS011;9708;53.114;9.388;2023-03-01T04:19:19;3.93;;;2.10;;
19151;SDS011;9708;53.114;9.388;2023-03-01T04:21:46;2.70;;;2.10;;
19151;SDS011;9708;53.114;9.388;2023-03-01T04:24:13;9.73;;;1.83;;
19151;SDS011;9708;53.114;9.388;2023-03-01T04:26:40;3.57;;;2.73;;
19151;SDS011;9708;53.114;9.388;2023-03-01T04:29:06;2.90;;;1.70;;
19151;SDS011;9708;53.114;9.388;2023-03-01T04:31:33;5.20;;;1.83;;
19151;SDS011;9708;53.114;9.388;2023-03-01T04:34:02;2.17;;;2.03;;
19151;SDS011;9708;53.114;9.388;2023-03-01T04:36:29;3.03;;;2.77;;
19151;SDS011;9708;53.114;9.388;2023-03-01T04:38:56;5.57;;;2.10;;
19151;SDS011;9708;53.114;9.388;2023-03-01T04:41:23;1.70;;;1.60;;
19151;SDS011;9708;53.114;9.388;2023-03-01T04:43:50;3.20;;;1.80;;
19151;SDS011;9708;53.114;9.388;2023-03-01T04:46:18;1.50;;;1.47;;
19151;SDS011;9708;53.114;9.388;2023-03-01T04:48:46;2.03;;;1.90;;
19151;SDS011;9708;53.114;9.388;2023-03-01T04:51:14;3.00;;;2.70;;
19151;SDS011;9708;53.114;9.388;2023-03-01T04:53:42;2.53;;;2.20;;
19151;SDS011;9708;53.114;9.388;2023-03-01T04:56:09;1.87;;;1.60;;
19151;SDS011;9708;53.114;9.388;2023-03-01T04:58:36;1.80;;;1.70;;
19151;SDS011;9708;53.114;9.388;2023-03-01T05:01:07;3.33;;;2.73;;
19151;SDS011;9708;53.114;9.388;2023-03-01T05:03:40;4.73;;;3.27;;
19151;SDS011;9708;53.114;9.388;2023-03-01T05:06:07;1.70;;;1.60;;
19151;SDS011;9708;53.114;9.388;2023-03-01T05:08:35;2.37;;;2.17;;
19151;SDS011;9708;53.114;9.388;2023-03-01T05:11:03;4.07;;;3.33;;
19151;SDS011;9708;53.114;9.388;2023-03-01T05:13:30;5.37;;;2.50;;
19151;SDS011;9708;53.114;9.388;2023-03-01T05:15:57;1.20;;;1.20;;
19151;SDS011;9708;53.114;9.388;2023-03-01T05:18:25;2.17;;;2.00;;
19151;SDS011;9708;53.114;9.388;2023-03-01T05:20:55;4.67;;;2.27;;
19151;SDS011;9708;53.114;9.388;2023-03-01T05:23:29;2.37;;;2.17;;
19151;SDS011;9708;53.114;9.388;2023-03-01T05:25:58;1.80;;;1.70;;
19151;SDS011;9708;53.114;9.388;2023-03-01T05:28:26;2.93;;;1.77;;
19151;SDS011;9708;53.114;9.388;2023-03-01T05:30:54;2.10;;;1.90;;
19151;SDS011;9708;53.114;9.388;2023-03-01T05:33:22;2.37;;;2.27;;
19151;SDS011;9708;53.114;9.388;2023-03-01T05:35:50;2.67;;;2.33;;
19151;SDS011;9708;53.114;9.388;2023-03-01T05:38:18;2.57;;;2.37;;
19151;SDS011;9708;53.114;9.388;2023-03-01T05:40:46;3.73;;;2.40;;
19151;SDS011;9708;53.114;9.388;2023-03-01T05:43:16;2.00;;;1.60;;
19151;SDS011;9708;53.114;9.388;2023-03-01T05:45:44;5.30;;;2.73;;
19151;SDS011;9708;53.114;9.388;2023-03-01T05:48:11;2.03;;;1.93;;
19151;SDS011;9708;53.114;9.388;2023-03-01T05:50:39;1.50;;;1.50;;
19151;SDS011;9708;53.114;9.388;2023-03-01T05:53:09;1.50;;;1.40;;
19151;SDS011;9708;53.114;9.388;2023-03-01T05:55:37;3.23;;;2.90;;
19151;SDS011;9708;53.114;9.388;2023-03-01T05:58:05;3.60;;;2.20;;
19151;SDS011;9708;53.114;9.388;2023-03-01T06:00:35;1.97;;;1.87;;
19151;SDS011;9708;53.114;9.388;2023-03-01T06:03:02;5.53;;;2.43;;
19151;SDS011;9708;53.114;9.388;2023-03-01T06:05:29;5.73;;;2.97;;
19151;SDS011;9708;53.114;9.388;2023-03-01T06:07:58;3.13;;;1.87;;
19151;SDS011;9708;53.114;9.388;2023-03-01T06:10:25;2.50;;;2.30;;
19151;SDS011;9708;53.114;9.388;2023-03-01T06:12:52;2.40;;;2.23;;
19151;SDS011;9708;53.114;9.388;2023-03-01T06:15:20;2.00;;;1.77;;
19151;SDS011;9708;53.114;9.388;2023-03-01T06:17:49;2.60;;;2.43;;
19151;SDS011;9708;53.114;9.388;2023-03-01T06:20:19;2.10;;;1.90;;
19151;SDS011;9708;53.114;9.388;2023-03-01T06:22:48;1.90;;;1.80;;
19151;SDS011;9708;53.114;9.388;2023-03-01T06:25:16;3.40;;;2.23;;
19151;SDS011;9708;53.114;9.388;2023-03-01T06:27:45;2.87;;;2.43;;
19151;SDS011;9708;53.114;9.388;2023-03-01T06:30:12;2.23;;;1.93;;
19151;SDS011;9708;53.114;9.388;2023-03-01T06:32:40;2.07;;;1.97;;
19151;SDS011;9708;53.114;9.388;2023-03-01T06:35:09;2.23;;;2.13;;
19151;SDS011;9708;53.114;9.388;2023-03-01T06:37:36;2.33;;;1.90;;
19151;SDS011;9708;53.114;9.388;2023-03-01T06:40:04;4.33;;;2.40;;
19151;SDS011;9708;53.114;9.388;2023-03-01T06:42:33;3.23;;;2.40;;
19151;SDS011;9708;53.114;9.388;2023-03-01T06:45:00;2.37;;;2.13;;
19151;SDS011;9708;53.114;9.388;2023-03-01T06:47:27;4.17;;;2.57;;
19151;SDS011;9708;53.114;9.388;2023-03-01T06:49:53;9.67;;;2.13;;
19151;SDS011;9708;53.114;9.388;2023-03-01T06:52:21;4.50;;;3.20;;
19151;SDS011;9708;53.114;9.388;2023-03-01T06:54:48;5.77;;;2.47;;
19151;SDS011;9708;53.114;9.388;2023-03-01T06:57:15;4.80;;;3.30;;
19151;SDS011;9708;53.114;9.388;2023-03-01T06:59:42;5.30;;;3.80;;
19151;SDS011;9708;53.114;9.388;2023-03-01T07:02:09;6.10;;;3.40;;
19151;SDS011;9708;53.114;9.388;2023-03-01T07:04:36;5.37;;;4.03;;
19151;SDS011;9708;53.114;9.388;2023-03-01T07:07:03;7.10;;;3.73;;
19151;SDS011;9708;53.114;9.388;2023-03-01T07:09:32;4.30;;;2.80;;
19151;SDS011;9708;53.114;9.388;2023-03-01T07:11:59;3.50;;;3.27;;
19151;SDS011;9708;53.114;9.388;2023-03-01T07:14:26;6.93;;;3.80;;
19151;SDS011;9708;53.114;9.388;2023-03-01T07:16:53;4.47;;;4.13;;
19151;SDS011;9708;53.114;9.388;2023-03-01T07:19:20;5.43;;;3.57;;
19151;SDS011;9708;53.114;9.388;2023-03-01T07:21:47;8.53;;;4.50;;
19151;SDS011;9708;53.114;9.388;2023-03-01T07:24:14;5.00;;;3.83;;
19151;SDS011;9708;53.114;9.388;2023-03-01T07:26:42;4.83;;;4.03;;
19151;SDS011;9708;53.114;9.388;2023-03-01T07:29:09;4.63;;;4.10;;
19151;SDS011;9708;53.114;9.388;2023-03-01T07:31:36;6.33;;;4.27;;
19151;SDS011;9708;53.114;9.388;2023-03-01T07:34:03;5.77;;;3.30;;
19151;SDS011;9708;53.114;9.388;2023-03-01T07:36:30;3.70;;;3.40;;
19151;SDS011;9708;53.114;9.388;2023-03-01T07:38:57;5.13;;;3.23;;
19151;SDS011;9708;53.114;9.388;2023-03-01T07:41:27;6.03;;;3.70;;
19151;SDS011;9708;53.114;9.388;2023-03-01T07:43:55;6.73;;;3.63;;
19151;SDS011;9708;53.114;9.388;2023-03-01T07:46:22;6.93;;;3.67;;
19151;SDS011;9708;53.114;9.388;2023-03-01T07:48:49;6.30;;;3.97;;
19151;SDS011;9708;53.114;9.388;2023-03-01T07:51:16;7.50;;;3.67;;
19151;SDS011;9708;53.114;9.388;2023-03-01T07:53:45;6.63;;;3.93;;
19151;SDS011;9708;53.114;9.388;2023-03-01T07:56:13;6.93;;;3.33;;
19151;SDS011;9708;53.114;9.388;2023-03-01T07:58:42;2.93;;;2.67;;
19151;SDS011;9708;53.114;9.388;2023-03-01T08:01:12;9.60;;;4.00;;
19151;SDS011;9708;53.114;9.388;2023-03-01T08:03:41;6.13;;;3.63;;
19151;SDS011;9708;53.114;9.388;2023-03-01T08:06:08;4.60;;;4.17;;
19151;SDS011;9708;53.114;9.388;2023-03-01T08:08:36;6.03;;;2.97;;
19151;SDS011;9708;53.114;9.388;2023-03-01T08:11:04;5.57;;;3.23;;
19151;SDS011;9708;53.114;9.388;2023-03-01T08:13:32;9.03;;;3.83;;
19151;SDS011;9708;53.114;9.388;2023-03-01T08:16:00;4.27;;;3.87;;
19151;SDS011;9708;53.114;9.388;2023-03-01T08:18:29;3.57;;;2.73;;
19151;SDS011;9708;53.114;9.388;2023-03-01T08:21:00;4.23;;;2.40;;
19151;SDS011;9708;53.114;9.388;2023-03-01T08:23:28;4.93;;;2.63;;
19151;SDS011;9708;53.114;9.388;2023-03-01T08:26:02;3.50;;;2.60;;
19151;SDS011;9708;53.114;9.388;2023-03-01T08:28:30;3.20;;;2.90;;
19151;SDS011;9708;53.114;9.388;2023-03-01T08:30:56;2.47;;;2.37;;
19151;SDS011;9708;53.114;9.388;2023-03-01T08:33:23;4.23;;;2.70;;
19151;SDS011;9708;53.114;9.388;2023-03-01T08:35:52;2.87;;;2.60;;
19151;SDS011;9708;53.114;9.388;2023-03-01T08:38:19;2.50;;;2.30;;
19151;SDS011;9708;53.114;9.388;2023-03-01T08:40:45;2.83;;;2.63;;
19151;SDS011;9708;53.114;9.388;2023-03-01T08:43:12;4.57;;;2.73;;
19151;SDS011;9708;53.114;9.388;2023-03-01T08:45:39;2.23;;;2.07;;
19151;SDS011;9708;53.114;9.388;2023-03-01T08:48:06;2.20;;;1.97;;
19151;SDS011;9708;53.114;9.388;2023-03-01T08:50:33;2.50;;;2.30;;
19151;SDS011;9708;53.114;9.388;2023-03-01T08:53:01;5.37;;;2.80;;
19151;SDS011;9708;53.114;9.388;2023-03-01T08:55:28;2.67;;;2.47;;
19151;SDS011;9708;53.114;9.388;2023-03-01T08:57:55;4.23;;;2.90;;
19151;SDS011;9708;53.114;9.388;2023-03-01T09:00:24;4.20;;;2.10;;
19151;SDS011;9708;53.114;9.388;2023-03-01T09:02:51;3.63;;;2.40;;
19151;SDS011;9708;53.114;9.388;2023-03-01T09:05:17;2.73;;;2.37;;
19151;SDS011;9708;53.114;9.388;2023-03-01T09:07:44;3.63;;;2.37;;
19151;SDS011;9708;53.114;9.388;2023-03-01T09:10:12;3.17;;;2.00;;
19151;SDS011;9708;53.114;9.388;2023-03-01T09:12:39;7.67;;;2.53;;
19151;SDS011;9708;53.114;9.388;2023-03-01T09:15:06;4.80;;;2.90;;
19151;SDS011;9708;53.114;9.388;2023-03-01T09:17:34;2.53;;;2.33;;
19151;SDS011;9708;53.114;9.388;2023-03-01T09:20:01;2.53;;;2.33;;
19151;SDS011;9708;53.114;9.388;2023-03-01T09:22:30;3.43;;;2.60;;
19151;SDS011;9708;53.114;9.388;2023-03-01T09:24:58;2.43;;;2.20;;
19151;SDS011;9708;53.114;9.388;2023-03-01T09:27:27;2.77;;;2.23;;
19151;SDS011;9708;53.114;9.388;2023-03-01T09:29:54;4.20;;;2.23;;
19151;SDS011;9708;53.114;9.388;2023-03-01T09:32:22;2.27;;;2.13;;
19151;SDS011;9708;53.114;9.388;2023-03-01T09:34:49;3.13;;;2.47;;
19151;SDS011;9708;53.114;9.388;2023-03-01T09:37:29;2.13;;;2.03;;
19151;SDS011;9708;53.114;9.388;2023-03-01T09:39:56;5.70;;;2.40;;
19151;SDS011;9708;53.114;9.388;2023-03-01T09:42:23;2.80;;;1.93;;
19151;SDS011;9708;53.114;9.388;2023-03-01T09:44:53;1.87;;;1.73;;
19151;SDS011;9708;53.114;9.388;2023-03-01T09:47:23;2.17;;;1.90;;
19151;SDS011;9708;53.114;9.388;2023-03-01T09:49:56;3.73;;;2.50;;
19151;SDS011;9708;53.114;9.388;2023-03-01T09:52:28;7.40;;;2.40;;
19151;SDS011;9708;53.114;9.388;2023-03-01T09:54:59;3.10;;;2.13;;
19151;SDS011;9708;53.114;9.388;2023-03-01T09:57:28;2.73;;;2.00;;
19151;SDS011;9708;53.114;9.388;2023-03-01T10:00:07;3.43;;;2.27;;
19151;SDS011;9708;53.114;9.388;2023-03-01T10:02:47;2.40;;;2.03;;
19151;SDS011;9708;53.114;9.388;2023-03-01T10:05:25;5.67;;;3.00;;
19151;SDS011;9708;53.114;9.388;2023-03-01T10:08:02;4.30;;;2.10;;
19151;SDS011;9708;53.114;9.388;2023-03-01T10:10:45;3.87;;;2.43;;
19151;SDS011;9708;53.114;9.388;2023-03-01T10:13:14;3.97;;;1.83;;
19151;SDS011;9708;53.114;9.388;2023-03-01T10:15:47;4.23;;;2.40;;
19151;SDS011;9708;53.114;9.388;2023-03-01T10:18:20;4.40;;;2.33;;
19151;SDS011;9708;53.114;9.388;2023-03-01T10:20:51;2.47;;;2.13;;
19151;SDS011;9708;53.114;9.388;2023-03-01T10:23:20;3.40;;;2.50;;
19151;SDS011;9708;53.114;9.388;2023-03-01T10:25:54;4.13;;;2.40;;
19151;SDS011;9708;53.114;9.388;2023-03-01T10:28:31;3.77;;;2.50;;
19151;SDS011;9708;53.114;9.388;2023-03-01T10:31:11;6.30;;;2.83;;
19151;SDS011;9708;53.114;9.388;2023-03-01T10:33:39;5.43;;;2.70;;
19151;SDS011;9708;53.114;9.388;2023-03-01T10:36:07;6.13;;;2.97;;
19151;SDS011;9708;53.114;9.388;2023-03-01T10:38:46;3.57;;;2.33;;
19151;SDS011;9708;53.114;9.388;2023-03-01T10:41:17;5.20;;;2.70;;
19151;SDS011;9708;53.114;9.388;2023-03-01T10:43:46;7.57;;;3.10;;
19151;SDS011;9708;53.114;9.388;2023-03-01T10:46:26;3.70;;;3.40;;
19151;SDS011;9708;53.114;9.388;2023-03-01T10:49:05;5.60;;;3.17;;
19151;SDS011;9708;53.114;9.388;2023-03-01T10:51:34;3.27;;;2.90;;
19151;SDS011;9708;53.114;9.388;2023-03-01T10:54:01;5.90;;;3.27;;
19151;SDS011;9708;53.114;9.388;2023-03-01T10:56:29;5.57;;;3.20;;
19151;SDS011;9708;53.114;9.388;2023-03-01T10:59:20;7.78;;;3.72;;
19151;SDS011;9708;53.114;9.388;2023-03-01T11:02:12;5.47;;;2.85;;
19151;SDS011;9708;53.114;9.388;2023-03-01T11:04:55;5.38;;;2.90;;
19151;SDS011;9708;53.114;9.388;2023-03-01T11:07:24;4.82;;;2.92;;
19151;SDS011;9708;53.114;9.388;2023-03-01T11:09:51;3.25;;;2.42;;
19151;SDS011;9708;53.114;9.388;2023-03-01T11:12:18;4.75;;;2.75;;
19151;SDS011;9708;53.114;9.388;2023-03-01T11:14:46;4.75;;;3.15;;
19151;SDS011;9708;53.114;9.388;2023-03-01T11:17:17;6.00;;;3.13;;
19151;SDS011;9708;53.114;9.388;2023-03-01T11:19:59;3.67;;;2.90;;
19151;SDS011;9708;53.114;9.388;2023-03-01T11:22:28;4.90;;;3.30;;
19151;SDS011;9708;53.114;9.388;2023-03-01T11:24:57;5.32;;;3.30;;
19151;SDS011;9708;53.114;9.388;2023-03-01T11:27:26;4.90;;;2.83;;
19151;SDS011;9708;53.114;9.388;2023-03-01T11:29:55;4.68;;;3.53;;
19151;SDS011;9708;53.114;9.388;2023-03-01T11:32:28;6.60;;;3.33;;
19151;SDS011;9708;53.114;9.388;2023-03-01T11:35:02;3.60;;;3.30;;
19151;SDS011;9708;53.114;9.388;2023-03-01T11:37:37;5.45;;;3.45;;
19151;SDS011;9708;53.114;9.388;2023-03-01T11:40:14;5.03;;;3.33;;
19151;SDS011;9708;53.114;9.388;2023-03-01T11:42:50;7.10;;;4.20;;
19151;SDS011;9708;53.114;9.388;2023-03-01T11:45:25;6.35;;;3.65;;
19151;SDS011;9708;53.114;9.388;2023-03-01T11:48:04;7.18;;;3.40;;
19151;SDS011;9708;53.114;9.388;2023-03-01T11:50:40;5.80;;;3.53;;
19151;SDS011;9708;53.114;9.388;2023-03-01T11:53:20;4.85;;;3.38;;
19151;SDS011;9708;53.114;9.388;2023-03-01T11:56:05;3.50;;;2.72;;
19151;SDS011;9708;53.114;9.388;2023-03-01T11:58:47;5.53;;;3.55;;
19151;SDS011;9708;53.114;9.388;2023-03-01T12:01:30;4.30;;;3.28;;
19151;SDS011;9708;53.114;9.388;2023-03-01T12:04:29;5.35;;;3.35;;
19151;SDS011;9708;53.114;9.388;2023-03-01T12:07:10;5.10;;;2.65;;
19151;SDS011;9708;53.114;9.388;2023-03-01T12:09:44;3.28;;;2.60;;
19151;SDS011;9708;53.114;9.388;2023-03-01T12:12:26;5.65;;;3.33;;
19151;SDS011;9708;53.114;9.388;2023-03-01T12:15:07;5.32;;;3.80;;
19151;SDS011;9708;53.114;9.388;2023-03-01T12:17:57;7.28;;;3.60;;
19151;SDS011;9708;53.114;9.388;2023-03-01T12:20:44;5.68;;;3.38;;
19151;SDS011;9708;53.114;9.388;2023-03-01T12:23:20;4.82;;;3.08;;
19151;SDS011;9708;53.114;9.388;2023-03-01T12:26:15;4.88;;;2.97;;
19151;SDS011;9708;53.114;9.388;2023-03-01T12:28:49;4.90;;;3.00;;
19151;SDS011;9708;53.114;9.388;2023-03-01T12:31:35;5.07;;;3.00;;
19151;SDS011;9708;53.114;9.388;2023-03-01T12:37:25;5.25;;;3.38;;
19151;SDS011;9708;53.114;9.388;2023-03-01T12:43:28;5.00;;;3.03;;
19151;SDS011;9708;53.114;9.388;2023-03-01T12:46:15;4.15;;;2.83;;
19151;SDS011;9708;53.114;9.388;2023-03-01T12:48:53;6.95;;;2.90;;
19151;SDS011;9708;53.114;9.388;2023-03-01T12:51:26;3.97;;;2.70;;
19151;SDS011;9708;53.114;9.388;2023-03-01T12:53:58;5.70;;;3.28;;
19151;SDS011;9708;53.114;9.388;2023-03-01T12:56:28;4.15;;;2.92;;
19151;SDS011;9708;53.114;9.388;2023-03-01T12:59:00;4.80;;;3.28;;
19151;SDS011;9708;53.114;9.388;2023-03-01T13:01:36;5.68;;;3.08;;
19151;SDS011;9708;53.114;9.388;2023-03-01T13:04:25;5.43;;;2.97;;
19151;SDS011;9708;53.114;9.388;2023-03-01T13:07:08;4.32;;;2.58;;
19151;SDS011;9708;53.114;9.388;2023-03-01T13:09:43;4.03;;;2.70;;
19151;SDS011;9708;53.114;9.388;2023-03-01T13:15:24;5.60;;;3.20;;
19151;SDS011;9708;53.114;9.388;2023-03-01T13:17:52;5.28;;;3.33;;
19151;SDS011;9708;53.114;9.388;2023-03-01T13:20:21;3.60;;;2.60;;
19151;SDS011;9708;53.114;9.388;2023-03-01T13:22:59;4.68;;;3.10;;
19151;SDS011;9708;53.114;9.388;2023-03-01T13:25:29;3.33;;;2.65;;
19151;SDS011;9708;53.114;9.388;2023-03-01T13:30:56;4.88;;;3.10;;
19151;SDS011;9708;53.114;9.388;2023-03-01T13:33:33;5.40;;;2.93;;
19151;SDS011;9708;53.114;9.388;2023-03-01T13:36:06;4.75;;;3.53;;
19151;SDS011;9708;53.114;9.388;2023-03-01T13:38:38;3.27;;;2.73;;
19151;SDS011;9708;53.114;9.388;2023-03-01T13:41:14;5.40;;;3.43;;
19151;SDS011;9708;53.114;9.388;2023-03-01T13:43:42;6.77;;;3.47;;
19151;SDS011;9708;53.114;9.388;2023-03-01T13:46:11;5.30;;;3.90;;
19151;SDS011;9708;53.114;9.388;2023-03-01T13:48:43;5.97;;;3.23;;
19151;SDS011;9708;53.114;9.388;2023-03-01T13:51:11;4.03;;;2.77;;
19151;SDS011;9708;53.114;9.388;2023-03-01T13:53:40;3.73;;;3.07;;
19151;SDS011;9708;53.114;9.388;2023-03-01T13:56:10;5.37;;;3.27;;
19151;SDS011;9708;53.114;9.388;2023-03-01T13:58:46;5.67;;;3.23;;
19151;SDS011;9708;53.114;9.388;2023-03-01T14:01:23;6.07;;;3.00;;
19151;SDS011;9708;53.114;9.388;2023-03-01T14:03:52;4.60;;;2.93;;
19151;SDS011;9708;53.114;9.388;2023-03-01T14:06:21;6.17;;;3.67;;
19151;SDS011;9708;53.114;9.388;2023-03-01T14:08:51;3.50;;;2.90;;
19151;SDS011;9708;53.114;9.388;2023-03-01T14:14:23;3.90;;;2.87;;
19151;SDS011;9708;53.114;9.388;2023-03-01T14:17:17;3.70;;;3.10;;
19151;SDS011;9708;53.114;9.388;2023-03-01T14:20:00;4.22;;;2.47;;
19151;SDS011;9708;53.114;9.388;2023-03-01T14:22:35;4.57;;;3.10;;
19151;SDS011;9708;53.114;9.388;2023-03-01T14:25:03;3.37;;;2.83;;
19151;SDS011;9708;53.114;9.388;2023-03-01T14:27:35;4.17;;;2.70;;
19151;SDS011;9708;53.114;9.388;2023-03-01T14:30:09;3.67;;;2.67;;
19151;SDS011;9708;53.114;9.388;2023-03-01T14:32:40;6.03;;;3.20;;
19151;SDS011;9708;53.114;9.388;2023-03-01T14:35:18;5.53;;;3.27;;
19151;SDS011;9708;53.114;9.388;2023-03-01T14:37:46;6.63;;;3.43;;
19151;SDS011;9708;53.114;9.388;2023-03-01T14:40:20;5.10;;;3.20;;
19151;SDS011;9708;53.114;9.388;2023-03-01T14:42:50;5.60;;;3.08;;
19151;SDS011;9708;53.114;9.388;2023-03-01T14:45:18;5.27;;;3.27;;
19151;SDS011;9708;53.114;9.388;2023-03-01T14:47:46;6.87;;;3.93;;
19151;SDS011;9708;53.114;9.388;2023-03-01T14:50:20;8.40;;;3.90;;
19151;SDS011;9708;53.114;9.388;2023-03-01T14:52:50;4.67;;;3.60;;
19151;SDS011;9708;53.114;9.388;2023-03-01T14:55:20;6.03;;;4.37;;
19151;SDS011;9708;53.114;9.388;2023-03-01T14:57:51;7.40;;;3.70;;
19151;SDS011;9708;53.114;9.388;2023-03-01T15:00:19;6.87;;;3.97;;
19151;SDS011;9708;53.114;9.388;2023-03-01T15:02:48;7.33;;;4.00;;
19151;SDS011;9708;53.114;9.388;2023-03-01T15:05:18;6.43;;;3.50;;
19151;SDS011;9708;53.114;9.388;2023-03-01T15:07:49;7.27;;;3.97;;
19151;SDS011;9708;53.114;9.388;2023-03-01T15:10:19;9.10;;;4.27;;
19151;SDS011;9708;53.114;9.388;2023-03-01T15:12:47;5.33;;;3.77;;
19151;SDS011;9708;53.114;9.388;2023-03-01T15:15:26;9.00;;;4.10;;
19151;SDS011;9708;53.114;9.388;2023-03-01T15:18:01;9.03;;;3.67;;
19151;SDS011;9708;53.114;9.388;2023-03-01T15:20:31;7.20;;;3.90;;
19151;SDS011;9708;53.114;9.388;2023-03-01T15:23:01;7.63;;;3.93;;
19151;SDS011;9708;53.114;9.388;2023-03-01T15:25:30;8.40;;;3.70;;
19151;SDS011;9708;53.114;9.388;2023-03-01T15:27:58;6.53;;;3.77;;
19151;SDS011;9708;53.114;9.388;2023-03-01T15:30:29;5.50;;;4.50;;
19151;SDS011;9708;53.114;9.388;2023-03-01T15:35:47;8.57;;;3.97;;
19151;SDS011;9708;53.114;9.388;2023-03-01T15:38:23;6.13;;;3.57;;
19151;SDS011;9708;53.114;9.388;2023-03-01T15:40:52;6.90;;;4.63;;
19151;SDS011;9708;53.114;9.388;2023-03-01T15:43:39;5.43;;;3.80;;
19151;SDS011;9708;53.114;9.388;2023-03-01T15:46:21;8.83;;;3.77;;
19151;SDS011;9708;53.114;9.388;2023-03-01T15:48:51;7.20;;;3.90;;
19151;SDS011;9708;53.114;9.388;2023-03-01T15:51:22;7.23;;;4.23;;
19151;SDS011;9708;53.114;9.388;2023-03-01T15:53:55;7.10;;;4.20;;
19151;SDS011;9708;53.114;9.388;2023-03-01T15:56:25;5.80;;;4.27;;
19151;SDS011;9708;53.114;9.388;2023-03-01T15:58:52;8.23;;;4.57;;
19151;SDS011;9708;53.114;9.388;2023-03-01T16:01:18;8.23;;;4.27;;
19151;SDS011;9708;53.114;9.388;2023-03-01T16:03:47;7.10;;;4.30;;
19151;SDS011;9708;53.114;9.388;2023-03-01T16:06:13;10.70;;;4.77;;
19151;SDS011;9708;53.114;9.388;2023-03-01T16:08:40;7.67;;;4.27;;
19151;SDS011;9708;53.114;9.388;2023-03-01T16:11:13;11.00;;;4.40;;
19151;SDS011;9708;53.114;9.388;2023-03-01T16:13:42;7.73;;;4.50;;
19151;SDS011;9708;53.114;9.388;2023-03-01T16:16:10;8.23;;;4.00;;
19151;SDS011;9708;53.114;9.388;2023-03-01T16:18:41;6.10;;;3.83;;
19151;SDS011;9708;53.114;9.388;2023-03-01T16:21:11;8.67;;;4.97;;
19151;SDS011;9708;53.114;9.388;2023-03-01T16:23:43;6.63;;;3.73;;
19151;SDS011;9708;53.114;9.388;2023-03-01T16:26:11;10.13;;;4.97;;
19151;SDS011;9708;53.114;9.388;2023-03-01T16:28:38;11.13;;;4.30;;
19151;SDS011;9708;53.114;9.388;2023-03-01T16:31:05;10.63;;;4.53;;
19151;SDS011;9708;53.114;9.388;2023-03-01T16:33:31;10.00;;;5.43;;
19151;SDS011;9708;53.114;9.388;2023-03-01T16:36:00;14.07;;;5.67;;
19151;SDS011;9708;53.114;9.388;2023-03-01T16:38:27;10.20;;;5.27;;
19151;SDS011;9708;53.114;9.388;2023-03-01T16:40:54;8.70;;;4.60;;
19151;SDS011;9708;53.114;9.388;2023-03-01T16:43:21;10.70;;;6.07;;
19151;SDS011;9708;53.114;9.388;2023-03-01T16:45:48;11.00;;;5.87;;
19151;SDS011;9708;53.114;9.388;2023-03-01T16:48:14;14.50;;;5.47;;
19151;SDS011;9708;53.114;9.388;2023-03-01T16:50:41;11.40;;;5.40;;
19151;SDS011;9708;53.114;9.388;2023-03-01T16:53:09;12.00;;;4.57;;
19151;SDS011;9708;53.114;9.388;2023-03-01T16:55:36;11.33;;;5.37;;
19151;SDS011;9708;53.114;9.388;2023-03-01T16:58:10;8.83;;;3.70;;
19151;SDS011;9708;53.114;9.388;2023-03-01T17:00:36;15.30;;;6.00;;
19151;SDS011;9708;53.114;9.388;2023-03-01T17:03:03;13.47;;;6.70;;
19151;SDS011;9708;53.114;9.388;2023-03-01T17:05:30;11.80;;;4.87;;
19151;SDS011;9708;53.114;9.388;2023-03-01T17:07:56;12.93;;;5.67;;
19151;SDS011;9708;53.114;9.388;2023-03-01T17:10:26;11.13;;;5.40;;
19151;SDS011;9708;53.114;9.388;2023-03-01T17:12:52;11.23;;;5.57;;
19151;SDS011;9708;53.114;9.388;2023-03-01T17:15:19;12.50;;;6.10;;
19151;SDS011;9708;53.114;9.388;2023-03-01T17:17:46;8.20;;;4.87;;
19151;SDS011;9708;53.114;9.388;2023-03-01T17:20:15;17.67;;;6.30;;
19151;SDS011;9708;53.114;9.388;2023-03-01T17:22:42;14.40;;;7.17;;
19151;SDS011;9708;53.114;9.388;2023-03-01T17:25:09;12.03;;;5.20;;
19151;SDS011;9708;53.114;9.388;2023-03-01T17:27:38;15.63;;;7.00;;
19151;SDS011;9708;53.114;9.388;2023-03-01T17:30:06;14.67;;;5.70;;
19151;SDS011;9708;53.114;9.388;2023-03-01T17:32:34;11.77;;;6.20;;
19151;SDS011;9708;53.114;9.388;2023-03-01T17:35:01;10.00;;;5.53;;
19151;SDS011;9708;53.114;9.388;2023-03-01T17:37:28;12.77;;;6.70;;
19151;SDS011;9708;53.114;9.388;2023-03-01T17:39:55;10.90;;;6.07;;
19151;SDS011;9708;53.114;9.388;2023-03-01T17:42:22;12.37;;;6.33;;
19151;SDS011;9708;53.114;9.388;2023-03-01T17:44:50;10.30;;;5.27;;
19151;SDS011;9708;53.114;9.388;2023-03-01T17:47:16;10.27;;;5.13;;
19151;SDS011;9708;53.114;9.388;2023-03-01T17:49:43;13.57;;;6.23;;
19151;SDS011;9708;53.114;9.388;2023-03-01T17:52:10;8.33;;;4.00;;
19151;SDS011;9708;53.114;9.388;2023-03-01T17:54:37;10.03;;;5.50;;
19151;SDS011;9708;53.114;9.388;2023-03-01T17:57:04;11.90;;;5.43;;
19151;SDS011;9708;53.114;9.388;2023-03-01T17:59:31;9.57;;;4.90;;
19151;SDS011;9708;53.114;9.388;2023-03-01T18:02:02;10.70;;;4.27;;
19151;SDS011;9708;53.114;9.388;2023-03-01T18:04:29;9.73;;;4.27;;
19151;SDS011;9708;53.114;9.388;2023-03-01T18:06:56;3.97;;;3.57;;
19151;SDS011;9708;53.114;9.388;2023-03-01T18:09:23;10.77;;;4.13;;
19151;SDS011;9708;53.114;9.388;2023-03-01T18:11:51;14.20;;;4.47;;
19151;SDS011;9708;53.114;9.388;2023-03-01T18:14:18;8.37;;;3.77;;
19151;SDS011;9708;53.114;9.388;2023-03-01T18:16:45;5.87;;;4.63;;
19151;SDS011;9708;53.114;9.388;2023-03-01T18:19:13;14.03;;;5.37;;
19151;SDS011;9708;53.114;9.388;2023-03-01T18:21:40;10.83;;;4.80;;
19151;SDS011;9708;53.114;9.388;2023-03-01T18:24:08;6.43;;;4.10;;
19151;SDS011;9708;53.114;9.388;2023-03-01T18:26:34;11.43;;;5.03;;
19151;SDS011;9708;53.114;9.388;2023-03-01T18:29:01;6.77;;;3.90;;
19151;SDS011;9708;53.114;9.388;2023-03-01T18:31:28;13.30;;;5.27;;
19151;SDS011;9708;53.114;9.388;2023-03-01T18:33:57;9.57;;;4.40;;
19151;SDS011;9708;53.114;9.388;2023-03-01T18:36:26;10.27;;;4.17;;
19151;SDS011;9708;53.114;9.388;2023-03-01T18:38:54;12.57;;;6.73;;
19151;SDS011;9708;53.114;9.388;2023-03-01T18:41:22;8.73;;;4.57;;
19151;SDS011;9708;53.114;9.388;2023-03-01T18:43:49;8.03;;;4.90;;
19151;SDS011;9708;53.114;9.388;2023-03-01T18:46:16;12.43;;;6.07;;
19151;SDS011;9708;53.114;9.388;2023-03-01T18:48:44;10.27;;;4.77;;
19151;SDS011;9708;53.114;9.388;2023-03-01T18:51:11;9.53;;;5.33;;
19151;SDS011;9708;53.114;9.388;2023-03-01T18:53:40;13.57;;;5.30;;
19151;SDS011;9708;53.114;9.388;2023-03-01T18:56:07;8.93;;;6.07;;
19151;SDS011;9708;53.114;9.388;2023-03-01T18:58:34;9.47;;;4.37;;
19151;SDS011;9708;53.114;9.388;2023-03-01T19:01:02;12.60;;;4.70;;
19151;SDS011;9708;53.114;9.388;2023-03-01T19:03:32;9.20;;;6.40;;
19151;SDS011;9708;53.114;9.388;2023-03-01T19:05:59;7.90;;;4.60;;
19151;SDS011;9708;53.114;9.388;2023-03-01T19:08:26;8.27;;;4.50;;
19151;SDS011;9708;53.114;9.388;2023-03-01T19:10:58;12.13;;;5.47;;
19151;SDS011;9708;53.114;9.388;2023-03-01T19:13:26;10.70;;;6.07;;
19151;SDS011;9708;53.114;9.388;2023-03-01T19:16:01;13.27;;;6.27;;
19151;SDS011;9708;53.114;9.388;2023-03-01T19:18:29;9.57;;;4.87;;